Time;durP1;ratioP1;P1;durP2;ratioP2;P2;SDS_P1;SDS_P2;PMS_P1;PMS_P2;Temp;Humidity;BMP_temperature;BMP_pressure;BME280_temperature;BME280_humidity;BME280_pressure;Samples;Min_cycle;Max_cycle;Signal;HPM_P1;HPM_P2
2023/03/16 00:01:05;;;;;;;22.50;8.10;;;;;;;5.41;100.00;98980.73;105532;1296;22538;-69
2023/03/16 00:03:35;;;;;;;18.70;7.70;;;;;;;5.40;100.00;98991.59;105265;1296;25449;-70
2023/03/16 00:06:04;;;;;;;22.10;8.30;;;;;;;5.40;100.00;98994.71;105089;1296;25442;-71
2023/03/16 00:08:35;;;;;;;25.10;8.50;;;;;;;5.38;100.00;99004.27;105108;1296;25392;-71
2023/03/16 00:11:04;;;;;;;23.10;9.60;;;;;;;5.36;100.00;99010.61;105078;1296;22549;-71
2023/03/16 00:13:33;;;;;;;22.70;10.30;;;;;;;5.35;100.00;99035.03;105635;1296;22543;-70
2023/03/16 00:16:06;;;;;;;22.30;9.80;;;;;;;5.34;100.00;99045.64;105602;1296;26543;-70
2023/03/16 00:18:37;;;;;;;23.00;10.00;;;;;;;5.34;100.00;99047.45;105520;1296;25451;-71
2023/03/16 00:21:06;;;;;;;19.70;9.60;;;;;;;5.34;100.00;99056.17;105627;1296;24279;-74
2023/03/16 00:23:36;;;;;;;24.30;9.50;;;;;;;5.35;100.00;99069.02;105584;1296;25518;-70
2023/03/16 00:26:08;;;;;;;26.40;9.70;;;;;;;5.34;100.00;99081.02;105632;1296;25400;-71
2023/03/16 00:28:38;;;;;;;27.20;11.00;;;;;;;5.33;100.00;99088.41;105508;1296;26551;-70
2023/03/16 00:31:10;;;;;;;27.20;11.80;;;;;;;5.33;100.00;99093.45;105647;1290;25373;-70
2023/03/16 00:33:43;;;;;;;25.70;10.20;;;;;;;5.32;100.00;99096.91;105621;1296;25489;-70
2023/03/16 00:36:12;;;;;;;32.10;11.50;;;;;;;5.32;100.00;99104.63;105591;1296;25538;-69
2023/03/16 00:38:48;;;;;;;24.00;10.20;;;;;;;5.33;100.00;99113.17;105525;1296;25468;-71
2023/03/16 00:41:17;;;;;;;26.20;11.30;;;;;;;5.32;100.00;99115.22;105544;1296;22665;-70
2023/03/16 00:43:47;;;;;;;23.70;10.70;;;;;;;5.32;100.00;99124.16;105544;1296;22548;-70
2023/03/16 00:46:17;;;;;;;29.60;11.60;;;;;;;5.31;100.00;99138.70;105558;1296;22656;-69
2023/03/16 00:48:47;;;;;;;23.90;9.80;;;;;;;5.31;100.00;99149.42;105529;1296;26525;-71
2023/03/16 00:51:18;;;;;;;25.50;10.70;;;;;;;5.31;100.00;99154.61;105611;1296;22540;-70
2023/03/16 00:53:47;;;;;;;22.50;10.30;;;;;;;5.31;100.00;99163.02;105518;1296;25398;-69
2023/03/16 00:56:19;;;;;;;27.90;11.40;;;;;;;5.30;100.00;99169.35;105513;1296;25370;-69
2023/03/16 00:58:48;;;;;;;27.10;11.80;;;;;;;5.30;100.00;99188.55;105577;1296;22568;-70
2023/03/16 01:01:18;;;;;;;25.40;11.90;;;;;;;5.28;100.00;99207.95;105551;1296;25738;-69
2023/03/16 01:03:48;;;;;;;33.30;11.90;;;;;;;5.28;100.00;99230.55;105600;1296;22789;-71
2023/03/16 01:06:19;;;;;;;26.50;12.70;;;;;;;5.27;100.00;99256.88;105470;1296;25246;-73
2023/03/16 01:08:48;;;;;;;29.70;12.60;;;;;;;5.27;100.00;99276.91;105612;1296;22546;-73
2023/03/16 01:11:19;;;;;;;26.10;12.60;;;;;;;5.25;100.00;99307.29;105571;1296;25327;-71
2023/03/16 01:13:48;;;;;;;27.60;13.30;;;;;;;5.25;100.00;99337.89;105512;1296;24197;-70
2023/03/16 01:16:17;;;;;;;27.30;12.60;;;;;;;5.23;100.00;99384.16;105567;1296;22641;-70
2023/03/16 01:18:51;;;;;;;27.30;13.50;;;;;;;5.22;100.00;99426.63;105565;1296;22625;-70
2023/03/16 01:21:20;;;;;;;26.10;13.80;;;;;;;5.21;100.00;99484.43;105543;1296;22671;-75
2023/03/16 01:23:52;;;;;;;33.50;14.60;;;;;;;5.20;100.00;99531.73;105596;1296;25375;-71
2023/03/16 01:26:24;;;;;;;26.50;14.20;;;;;;;5.19;100.00;99576.16;105588;1296;22650;-70
2023/03/16 01:28:53;;;;;;;29.50;13.40;;;;;;;5.17;100.00;99617.09;105615;1296;22549;-69
2023/03/16 01:31:22;;;;;;;26.90;12.60;;;;;;;5.15;100.00;99665.48;105539;1296;22552;-70
2023/03/16 01:33:52;;;;;;;25.20;12.40;;;;;;;5.14;100.00;99704.54;105351;1296;22591;-69
2023/03/16 01:36:24;;;;;;;23.80;12.00;;;;;;;5.13;100.00;99744.48;105571;1296;25331;-70
2023/03/16 01:39:00;;;;;;;27.90;12.50;;;;;;;5.11;100.00;99774.27;105554;1296;25531;-70
2023/03/16 01:41:37;;;;;;;27.90;12.00;;;;;;;5.11;100.00;99818.83;105616;1296;25487;-70
2023/03/16 01:44:11;;;;;;;26.50;12.60;;;;;;;5.10;100.00;99858.75;105366;1296;26552;-70
2023/03/16 01:46:41;;;;;;;25.90;12.30;;;;;;;5.09;100.00;99887.58;105390;1296;25310;-71
2023/03/16 01:49:26;;;;;;;23.00;11.20;;;;;;;5.09;100.00;99914.92;105370;1296;22561;-73
2023/03/16 01:52:07;;;;;;;26.40;12.70;;;;;;;5.09;100.00;99939.09;106689;1296;22602;-69
2023/03/16 01:54:48;;;;;;;24.80;11.90;;;;;;;5.10;100.00;99969.06;108043;1296;24224;-70
2023/03/16 01:57:20;;;;;;;27.00;11.30;;;;;;;5.10;100.00;99996.91;105509;1296;25406;-70
2023/03/16 02:00:08;;;;;;;25.20;12.50;;;;;;;5.11;100.00;100019.64;105649;1296;22665;-69
2023/03/16 02:02:48;;;;;;;21.20;11.10;;;;;;;5.12;100.00;100041.23;105630;1296;25394;-70
2023/03/16 02:05:42;;;;;;;25.10;10.90;;;;;;;5.11;100.00;100068.77;105547;1296;25435;-71
2023/03/16 02:08:14;;;;;;;24.80;10.60;;;;;;;5.09;100.00;100095.73;105670;1296;25382;-70
2023/03/16 02:10:44;;;;;;;21.90;10.30;;;;;;;5.09;100.00;100121.50;105176;1296;25445;-69
2023/03/16 02:13:12;;;;;;;24.90;11.60;;;;;;;5.09;100.00;100144.77;105548;1296;22550;-69
2023/03/16 02:15:42;;;;;;;22.10;10.70;;;;;;;5.08;100.00;100250.42;105573;1296;25403;-69
2023/03/16 02:18:10;;;;;;;20.40;10.00;;;;;;;5.08;100.00;100280.79;105558;1296;22601;-70
2023/03/16 02:21:04;;;;;;;26.00;10.50;;;;;;;5.09;100.00;100292.84;105492;1296;25325;-70
2023/03/16 02:23:33;;;;;;;22.90;10.40;;;;;;;5.11;100.00;100320.03;105635;1296;25410;-70
2023/03/16 02:26:10;;;;;;;22.10;10.80;;;;;;;5.11;100.00;100345.48;105144;1296;25375;-72
2023/03/16 02:28:53;;;;;;;25.90;10.30;;;;;;;5.10;100.00;100347.30;105255;1296;25293;-74
2023/03/16 02:31:26;;;;;;;21.70;9.80;;;;;;;5.11;100.00;100356.17;105398;1296;26532;-73
2023/03/16 02:33:55;;;;;;;24.40;9.60;;;;;;;5.12;100.00;100370.54;105551;1296;25284;-72
2023/03/16 02:36:24;;;;;;;20.40;9.10;;;;;;;5.13;100.00;100368.67;105482;1296;25321;-70
2023/03/16 02:38:52;;;;;;;20.50;8.00;;;;;;;5.17;100.00;100358.56;105414;1296;25400;-69
2023/03/16 02:41:22;;;;;;;19.60;9.10;;;;;;;5.20;100.00;100360.80;105623;1296;25522;-71
2023/03/16 02:44:24;;;;;;;17.90;8.60;;;;;;;5.23;100.00;100362.30;105604;1296;25453;-70
2023/03/16 02:46:56;;;;;;;16.10;8.60;;;;;;;5.27;100.00;100355.36;105511;1296;22571;-70
2023/03/16 02:49:29;;;;;;;18.40;9.30;;;;;;;5.30;100.00;100356.33;105422;1296;25400;-70
2023/03/16 02:51:57;;;;;;;19.60;9.20;;;;;;;5.32;100.00;100354.34;105477;1296;25408;-70
2023/03/16 02:54:26;;;;;;;18.60;8.90;;;;;;;5.34;100.00;100352.77;105610;1296;26612;-70
2023/03/16 02:56:56;;;;;;;20.30;8.80;;;;;;;5.37;100.00;100349.58;105426;1296;25403;-70
2023/03/16 02:59:25;;;;;;;20.20;9.60;;;;;;;5.38;100.00;100352.51;105596;1296;24257;-70
2023/03/16 03:01:57;;;;;;;27.70;9.40;;;;;;;5.39;100.00;100348.48;105445;1297;25413;-72
2023/03/16 03:04:26;;;;;;;23.20;11.10;;;;;;;5.40;100.00;100346.42;105526;1296;25322;-72
2023/03/16 03:07:02;;;;;;;23.10;11.40;;;;;;;5.39;100.00;100345.05;105640;1296;26553;-71
2023/03/16 03:09:34;;;;;;;26.00;10.00;;;;;;;5.36;100.00;100345.13;105473;1296;25395;-69
2023/03/16 03:12:03;;;;;;;19.00;8.60;;;;;;;5.33;100.00;100354.31;105555;1296;23313;-71
2023/03/16 03:14:36;;;;;;;17.40;9.00;;;;;;;5.31;100.00;100351.08;105473;1296;25645;-71
2023/03/16 03:17:06;;;;;;;19.10;8.80;;;;;;;5.31;100.00;100352.50;105611;1296;26753;-70
2023/03/16 03:19:35;;;;;;;23.80;10.50;;;;;;;5.33;100.00;100349.69;105582;1296;22543;-70
2023/03/16 03:22:08;;;;;;;20.90;9.90;;;;;;;5.33;100.00;100339.48;105510;1296;23685;-69
2023/03/16 03:24:38;;;;;;;22.50;10.70;;;;;;;5.34;100.00;100338.67;105490;1296;25504;-71
2023/03/16 03:27:06;;;;;;;25.60;12.00;;;;;;;5.35;100.00;100342.71;105173;1296;25341;-69
2023/03/16 03:29:37;;;;;;;26.20;13.50;;;;;;;5.37;100.00;100336.28;105554;1290;22559;-69
2023/03/16 03:32:06;;;;;;;30.40;15.60;;;;;;;5.40;100.00;100327.12;105630;1297;26597;-70
2023/03/16 03:34:37;;;;;;;25.00;13.30;;;;;;;5.41;100.00;100323.27;105630;1296;25261;-70
2023/03/16 03:37:06;;;;;;;25.40;15.20;;;;;;;5.41;100.00;100319.81;105508;1296;25276;-70
2023/03/16 03:39:38;;;;;;;38.80;21.10;;;;;;;5.44;100.00;100314.23;105146;1296;22603;-70
2023/03/16 03:42:07;;;;;;;31.30;16.40;;;;;;;5.45;100.00;100308.64;105554;1296;25528;-69
2023/03/16 03:44:36;;;;;;;43.70;21.70;;;;;;;5.46;100.00;100311.02;105539;1293;25608;-71
2023/03/16 03:47:07;;;;;;;44.20;23.40;;;;;;;5.46;100.00;100305.45;105498;1296;25378;-71
2023/03/16 03:49:35;;;;;;;44.30;20.80;;;;;;;5.44;100.00;100311.70;105663;1296;25358;-69
2023/03/16 03:52:04;;;;;;;57.60;27.20;;;;;;;5.44;100.00;100312.64;105514;1296;25586;-69
2023/03/16 03:54:35;;;;;;;117.20;48.10;;;;;;;5.42;100.00;100312.08;105518;1296;25276;-70
2023/03/16 03:57:08;;;;;;;180.90;66.60;;;;;;;5.40;100.00;100316.00;105536;1296;23771;-72
2023/03/16 03:59:42;;;;;;;138.80;54.30;;;;;;;5.39;100.00;100316.45;105617;1296;25381;-72
2023/03/16 04:02:14;;;;;;;120.60;48.20;;;;;;;5.40;100.00;100313.34;105642;1296;25529;-71
2023/03/16 04:04:50;;;;;;;105.10;40.60;;;;;;;5.42;100.00;100312.81;105656;1296;25375;-70
2023/03/16 04:07:19;;;;;;;79.20;33.00;;;;;;;5.43;100.00;100312.33;105631;1296;25328;-71
2023/03/16 04:09:48;;;;;;;40.40;19.90;;;;;;;5.46;100.00;100312.05;105641;1296;22589;-70
2023/03/16 04:12:38;;;;;;;27.30;14.40;;;;;;;5.48;100.00;100298.27;105619;1296;25439;-70
2023/03/16 04:15:08;;;;;;;27.60;13.50;;;;;;;5.51;100.00;100297.15;105658;1296;22558;-72
2023/03/16 04:17:53;;;;;;;23.50;12.40;;;;;;;5.56;100.00;100297.52;105640;1296;26626;-70
2023/03/16 04:20:22;;;;;;;24.70;11.50;;;;;;;5.59;100.00;100300.64;105277;1296;25433;-70
2023/03/16 04:22:57;;;;;;;24.40;12.90;;;;;;;5.61;100.00;100298.11;105452;1296;25323;-69
2023/03/16 04:25:29;;;;;;;34.00;17.30;;;;;;;5.63;100.00;100295.61;107817;1296;22824;-69
2023/03/16 04:28:02;;;;;;;;;;;;;;;5.66;100.00;100295.33;106771;1296;25359;-71
2023/03/16 04:30:32;;;;;;;31.10;14.70;;;;;;;5.69;100.00;100292.17;105517;1296;22540;-71
2023/03/16 04:33:21;;;;;;;107.30;37.70;;;;;;;5.72;100.00;100290.17;105440;1296;25448;-70
2023/03/16 04:35:51;;;;;;;182.80;63.70;;;;;;;5.74;100.00;100289.11;105338;1296;25385;-71
2023/03/16 04:38:24;;;;;;;178.40;63.30;;;;;;;5.76;100.00;100297.35;105447;1296;26532;-70
2023/03/16 04:40:57;;;;;;;;;;;;;;;5.78;100.00;100306.51;101923;1296;1003803;-71
2023/03/16 04:43:33;;;;;;;67.90;28.10;;;;;;;5.76;100.00;100303.23;104922;1296;1003786;-72
2023/03/16 04:46:07;;;;;;;86.80;33.70;;;;;;;5.72;100.00;100304.30;105607;1296;25270;-69
2023/03/16 04:48:36;;;;;;;106.20;41.30;;;;;;;5.70;100.00;100314.15;105523;1296;25397;-69
2023/03/16 04:51:05;;;;;;;77.80;32.10;;;;;;;5.70;100.00;100315.04;105593;1296;22550;-71
2023/03/16 04:53:37;;;;;;;67.30;28.90;;;;;;;5.70;100.00;100322.50;105513;1296;25445;-69
2023/03/16 04:56:17;;;;;;;71.00;32.10;;;;;;;5.72;100.00;100319.89;105679;1296;26664;-71
2023/03/16 04:58:48;;;;;;;91.20;38.50;;;;;;;5.74;100.00;100324.52;105412;1296;22549;-70
2023/03/16 05:01:20;;;;;;;73.10;32.90;;;;;;;5.76;100.00;100325.96;105487;1296;22751;-70
2023/03/16 05:03:52;;;;;;;50.40;23.40;;;;;;;5.79;100.00;100327.16;105384;1296;22542;-70
2023/03/16 05:06:21;;;;;;;76.30;31.00;;;;;;;5.79;100.00;100329.80;105518;1296;24414;-71
2023/03/16 05:08:50;;;;;;;66.20;27.70;;;;;;;5.79;100.00;100326.99;105566;1296;22549;-73
2023/03/16 05:11:19;;;;;;;121.60;40.00;;;;;;;5.79;100.00;100323.96;105546;1296;25390;-69
2023/03/16 05:13:54;;;;;;;83.90;31.90;;;;;;;5.79;100.00;100318.02;105527;1296;24279;-70
2023/03/16 05:16:28;;;;;;;;;;;;;;;5.77;100.00;100316.95;105340;1296;25424;-70
2023/03/16 05:18:58;;;;;;;68.20;26.60;;;;;;;5.76;100.00;100314.04;105432;1296;22678;-69
2023/03/16 05:21:30;;;;;;;61.50;26.50;;;;;;;5.74;100.00;100307.70;105564;1296;23882;-69
2023/03/16 05:24:07;;;;;;;66.80;29.20;;;;;;;5.75;100.00;100307.42;105462;1296;25389;-71
2023/03/16 05:26:35;;;;;;;75.80;33.40;;;;;;;5.76;100.00;100303.96;105349;1296;25226;-70
2023/03/16 05:29:04;;;;;;;79.40;30.60;;;;;;;5.79;100.00;100304.59;105490;1296;22568;-72
2023/03/16 05:31:33;;;;;;;60.50;24.00;;;;;;;5.83;100.00;100307.66;105373;1296;25321;-70
2023/03/16 05:34:05;;;;;;;41.40;18.60;;;;;;;5.85;100.00;100303.35;105278;1296;25761;-69
2023/03/16 05:36:36;;;;;;;34.90;16.20;;;;;;;5.87;100.00;100296.77;105565;1296;25325;-70
2023/03/16 05:39:09;;;;;;;32.40;15.10;;;;;;;5.89;100.00;100293.34;105629;1296;25381;-69
2023/03/16 05:41:43;;;;;;;34.90;17.40;;;;;;;5.96;100.00;100293.81;105547;1296;25389;-71
2023/03/16 05:44:32;;;;;;;31.50;14.30;;;;;;;6.03;100.00;100290.89;105211;1290;25398;-70
2023/03/16 05:47:24;;;;;;;28.70;15.40;;;;;;;6.08;100.00;100290.27;105416;1290;25385;-67
2023/03/16 05:49:55;;;;;;;35.20;16.60;;;;;;;6.13;100.00;100292.02;105508;1296;26679;-67
2023/03/16 05:52:38;;;;;;;32.10;16.00;;;;;;;6.16;100.00;100292.81;105476;1293;25449;-67
2023/03/16 05:55:14;;;;;;;27.20;13.40;;;;;;;6.17;100.00;100295.08;105533;1296;25316;-67
2023/03/16 05:57:43;;;;;;;33.00;16.20;;;;;;;6.19;100.00;100295.40;105347;1296;22548;-68
2023/03/16 06:00:15;;;;;;;32.10;15.30;;;;;;;6.23;100.00;100297.85;105509;1296;24095;-68
2023/03/16 06:02:48;;;;;;;43.00;18.60;;;;;;;6.29;100.00;100290.91;105505;1296;25447;-68
2023/03/16 06:05:18;;;;;;;32.90;16.30;;;;;;;6.34;100.00;100287.13;105432;1296;25415;-68
2023/03/16 06:07:47;;;;;;;37.30;17.30;;;;;;;6.35;100.00;100288.41;105257;1296;195377;-70
2023/03/16 06:10:17;;;;;;;70.10;29.20;;;;;;;6.35;100.00;100285.55;105533;1285;22592;-70
2023/03/16 06:12:46;;;;;;;49.30;23.70;;;;;;;6.35;100.00;100279.84;105429;1293;25438;-70
2023/03/16 06:15:15;;;;;;;37.40;17.50;;;;;;;6.35;100.00;100275.94;105547;1296;25582;-68
2023/03/16 06:17:47;;;;;;;29.20;15.60;;;;;;;6.34;100.00;100272.19;105453;1296;25536;-69
2023/03/16 06:20:16;;;;;;;28.70;14.90;;;;;;;6.37;100.00;100269.95;105426;1296;27157;-68
2023/03/16 06:22:45;;;;;;;32.80;16.50;;;;;;;6.42;100.00;100275.39;105458;1290;22545;-68
2023/03/16 06:25:34;;;;;;;47.50;26.30;;;;;;;6.48;100.00;100282.27;106099;1289;25460;-69
2023/03/16 06:28:09;;;;;;;218.80;113.20;;;;;;;6.55;100.00;100276.28;105356;1290;22559;-70
2023/03/16 06:30:40;;;;;;;73.30;47.20;;;;;;;6.59;100.00;100272.48;105430;1292;25460;-71
2023/03/16 06:33:09;;;;;;;36.80;22.70;;;;;;;6.65;100.00;100270.67;105360;1290;25734;-71
2023/03/16 06:35:38;;;;;;;37.30;19.60;;;;;;;6.69;100.00;100263.21;105561;1289;24282;-70
2023/03/16 06:38:25;;;;;;;50.10;22.90;;;;;;;6.72;100.00;100252.48;105739;1293;26281;-71
2023/03/16 06:41:08;;;;;;;45.00;21.20;;;;;;;6.77;100.00;100249.88;106020;1296;23145;-70
2023/03/16 06:43:38;;;;;;;41.30;19.10;;;;;;;6.81;100.00;100253.42;105490;1296;26544;-70
2023/03/16 06:46:08;;;;;;;39.00;19.80;;;;;;;6.83;100.00;100249.83;105342;1296;25685;-70
2023/03/16 06:48:37;;;;;;;30.20;16.20;;;;;;;6.85;100.00;100244.45;105388;1289;22546;-69
2023/03/16 06:51:07;;;;;;;27.40;14.10;;;;;;;6.87;100.00;100237.86;105708;1290;23890;-70
2023/03/16 06:53:36;;;;;;;30.20;15.50;;;;;;;6.89;100.00;100234.58;105282;1293;22545;-68
2023/03/16 06:56:06;;;;;;;42.00;18.10;;;;;;;6.93;100.00;100231.55;105328;1296;22542;-69
2023/03/16 06:58:38;;;;;;;32.10;18.30;;;;;;;6.94;100.00;100228.58;105575;1293;25510;-66
2023/03/16 07:01:09;;;;;;;33.90;17.50;;;;;;;6.93;100.00;100229.96;105531;1296;23729;-70
2023/03/16 07:03:40;;;;;;;40.20;21.50;;;;;;;6.91;100.00;100226.38;105767;1294;26006;-70
2023/03/16 07:06:22;;;;;;;35.70;20.70;;;;;;;6.92;100.00;100218.70;105566;1289;24953;-74
2023/03/16 07:08:53;;;;;;;37.10;19.40;;;;;;;6.95;100.00;100224.05;105893;1290;24382;-70
2023/03/16 07:11:23;;;;;;;38.30;21.90;;;;;;;6.96;100.00;100222.13;105499;1296;26551;-70
2023/03/16 07:13:51;;;;;;;43.90;22.10;;;;;;;6.98;100.00;100224.46;105645;1297;22800;-75
2023/03/16 07:16:23;;;;;;;48.80;26.70;;;;;;;7.00;100.00;100223.23;106182;1297;22738;-72
2023/03/16 07:18:55;;;;;;;56.80;34.00;;;;;;;7.02;100.00;100219.95;106418;1298;24373;-70
2023/03/16 07:21:25;;;;;;;41.10;24.00;;;;;;;7.07;100.00;100220.41;106436;1296;23093;-71
2023/03/16 07:23:54;;;;;;;38.20;20.40;;;;;;;7.13;100.00;100222.88;105503;1296;25621;-67
2023/03/16 07:26:26;;;;;;;40.30;23.10;;;;;;;7.15;100.00;100221.45;105517;1296;23807;-69
2023/03/16 07:28:58;;;;;;;36.40;19.50;;;;;;;7.15;100.00;100212.48;105582;1296;26628;-70
2023/03/16 07:31:27;;;;;;;37.60;19.00;;;;;;;7.14;100.00;100205.80;105425;1297;22552;-67
2023/03/16 07:33:57;;;;;;;33.40;17.50;;;;;;;7.14;100.00;100200.73;105923;1296;24210;-67
2023/03/16 07:36:34;;;;;;;29.40;15.40;;;;;;;7.17;100.00;100197.71;105747;1292;25450;-67
2023/03/16 07:39:05;;;;;;;30.00;17.40;;;;;;;7.21;100.00;100202.94;105492;1296;25529;-68
2023/03/16 07:41:36;;;;;;;;;;;;;;;7.23;100.00;100205.12;105411;1296;25373;-68
2023/03/16 07:44:16;;;;;;;35.60;18.60;;;;;;;7.23;100.00;100204.52;105371;1296;24427;-67
2023/03/16 07:46:52;;;;;;;36.50;19.40;;;;;;;7.22;100.00;100199.77;105636;1296;25313;-69
2023/03/16 07:49:24;;;;;;;40.70;20.70;;;;;;;7.21;100.00;100200.29;105429;1296;23701;-67
2023/03/16 07:51:54;;;;;;;33.80;18.50;;;;;;;7.20;100.00;100198.59;105539;1296;23529;-70
2023/03/16 07:54:27;;;;;;;31.90;17.70;;;;;;;7.20;100.00;100198.92;105636;1296;22689;-68
2023/03/16 07:56:55;;;;;;;33.00;17.00;;;;;;;7.21;100.00;100203.50;105560;1290;22736;-67
2023/03/16 07:59:37;;;;;;;38.90;19.10;;;;;;;7.20;100.00;100199.25;105503;1296;25500;-69
2023/03/16 08:02:15;;;;;;;34.20;17.10;;;;;;;7.21;100.00;100196.14;105499;1296;22545;-70
2023/03/16 08:04:44;;;;;;;33.90;17.00;;;;;;;7.21;100.00;100193.98;105531;1296;22587;-70
2023/03/16 08:07:14;;;;;;;43.10;23.10;;;;;;;7.24;100.00;100191.89;105551;1296;22554;-73
2023/03/16 08:09:51;;;;;;;34.40;16.80;;;;;;;7.30;100.00;100195.61;105397;1296;22788;-70
2023/03/16 08:12:34;;;;;;;32.00;15.50;;;;;;;7.35;100.00;100186.73;106172;1289;23392;-69
2023/03/16 08:15:05;;;;;;;83.50;44.60;;;;;;;7.40;100.00;100190.20;105770;1296;23814;-71
2023/03/16 08:17:33;;;;;;;78.20;43.30;;;;;;;7.50;100.00;100193.73;105528;1296;22635;-72
2023/03/16 08:20:25;;;;;;;35.50;21.10;;;;;;;7.62;100.00;100187.06;106088;1296;24273;-71
2023/03/16 08:22:55;;;;;;;31.00;15.70;;;;;;;7.69;100.00;100192.10;105697;1296;22598;-71
2023/03/16 08:25:26;;;;;;;30.30;15.50;;;;;;;7.71;100.00;100188.08;105227;1296;25274;-70
2023/03/16 08:28:03;;;;;;;27.00;14.10;;;;;;;7.70;100.00;100184.48;105439;1296;25370;-70
2023/03/16 08:30:32;;;;;;;25.10;13.80;;;;;;;7.68;100.00;100187.88;105697;1296;24105;-70
2023/03/16 08:33:26;;;;;;;27.20;13.40;;;;;;;7.63;100.00;100179.27;105586;1298;23366;-69
2023/03/16 08:35:56;;;;;;;25.70;13.70;;;;;;;7.60;100.00;100187.41;105312;1296;23913;-69
2023/03/16 08:38:25;;;;;;;30.40;14.40;;;;;;;7.58;100.00;100188.40;105276;1293;26549;-70
2023/03/16 08:40:57;;;;;;;64.80;40.40;;;;;;;7.57;100.00;100190.02;106073;1296;22570;-71
2023/03/16 08:43:28;;;;;;;37.40;20.80;;;;;;;7.56;100.00;100192.44;106461;1296;22774;-71
2023/03/16 08:46:04;;;;;;;37.80;19.50;;;;;;;7.58;100.00;100192.38;106818;1296;25488;-71
2023/03/16 08:48:42;;;;;;;32.60;20.20;;;;;;;7.63;100.00;100195.77;105181;1290;25510;-71
2023/03/16 08:51:12;;;;;;;25.80;14.00;;;;;;;7.68;100.00;100196.17;106610;1292;22659;-69
2023/03/16 08:53:53;;;;;;;35.80;19.70;;;;;;;7.74;100.00;100199.66;106258;1289;26528;-69
2023/03/16 08:56:23;;;;;;;40.40;21.10;;;;;;;7.82;100.00;100201.41;105170;1290;22693;-69
2023/03/16 08:58:51;;;;;;;34.80;16.60;;;;;;;7.87;100.00;100207.97;105406;1290;25455;-67
2023/03/16 09:01:25;;;;;;;32.00;17.20;;;;;;;7.88;100.00;100211.28;105821;1290;22546;-69
2023/03/16 09:03:54;;;;;;;29.00;14.00;;;;;;;7.91;100.00;100209.33;105631;1289;25370;-67
2023/03/16 09:06:23;;;;;;;29.80;14.40;;;;;;;7.93;100.00;100211.88;105579;1289;25542;-67
2023/03/16 09:09:00;;;;;;;29.30;13.80;;;;;;;7.97;100.00;100206.61;105466;1292;22807;-73
2023/03/16 09:11:43;;;;;;;24.10;11.00;;;;;;;8.05;100.00;100200.67;105257;1296;25409;-69
2023/03/16 09:14:13;;;;;;;22.10;11.60;;;;;;;8.09;100.00;100205.94;104316;1296;1002972;-66
2023/03/16 09:16:43;;;;;;;25.10;12.70;;;;;;;8.13;100.00;100206.26;105434;1292;22548;-70
2023/03/16 09:19:16;;;;;;;23.40;12.30;;;;;;;8.17;100.00;100206.23;105207;1290;22549;-69
2023/03/16 09:21:47;;;;;;;25.80;12.70;;;;;;;8.22;100.00;100200.86;105331;1296;25331;-67
2023/03/16 09:24:17;;;;;;;24.60;12.20;;;;;;;8.28;100.00;100203.77;105469;1296;26810;-69
2023/03/16 09:26:51;;;;;;;21.70;11.30;;;;;;;8.29;100.00;100200.54;105362;1296;22682;-70
2023/03/16 09:29:31;;;;;;;29.60;14.10;;;;;;;8.35;100.00;100193.87;106815;1289;22492;-68
2023/03/16 09:32:02;;;;;;;26.20;12.70;;;;;;;8.41;100.00;100200.70;106117;1294;1003389;-66
2023/03/16 09:34:31;;;;;;;27.50;13.70;;;;;;;8.43;100.00;100194.75;105582;1289;22634;-69
2023/03/16 09:37:01;;;;;;;29.30;13.70;;;;;;;8.47;100.00;100189.52;105531;1293;25499;-69
2023/03/16 09:39:31;;;;;;;28.50;13.10;;;;;;;8.53;100.00;100195.17;105568;1290;23914;-68
2023/03/16 09:42:20;;;;;;;26.60;13.20;;;;;;;8.63;100.00;100192.38;105563;1291;25459;-69
2023/03/16 09:45:23;;;;;;;25.40;13.10;;;;;;;8.74;100.00;100189.50;105445;1293;25270;-68
2023/03/16 09:47:53;;;;;;;29.80;13.70;;;;;;;8.83;100.00;100188.02;105674;1290;22657;-70
2023/03/16 09:50:33;;;;;;;28.80;14.30;;;;;;;8.89;100.00;100194.42;105600;1296;25451;-68
2023/03/16 09:53:28;;;;;;;34.50;16.60;;;;;;;8.95;100.00;100191.70;105640;1293;25539;-68
2023/03/16 09:56:19;;;;;;;31.30;15.80;;;;;;;9.01;100.00;100188.22;105673;1293;25342;-67
2023/03/16 09:58:48;;;;;;;27.10;15.20;;;;;;;9.11;100.00;100184.48;105755;1293;23911;-71
2023/03/16 10:01:39;;;;;;;25.70;13.80;;;;;;;9.22;100.00;100191.21;105350;1296;25403;-71
2023/03/16 10:04:24;;;;;;;23.70;13.30;;;;;;;9.36;100.00;100187.65;105714;1296;25255;-68
2023/03/16 10:07:12;;;;;;;24.30;13.90;;;;;;;9.47;100.00;100185.73;105439;1296;25421;-71
2023/03/16 10:10:13;;;;;;;29.40;15.20;;;;;;;9.62;100.00;100182.98;105597;1291;24358;-69
2023/03/16 10:12:46;;;;;;;26.50;14.40;;;;;;;9.75;100.00;100176.92;105134;1297;22643;-70
2023/03/16 10:15:25;;;;;;;28.60;14.60;;;;;;;9.86;100.00;100182.94;105977;1297;24265;-72
2023/03/16 10:18:06;;;;;;;27.20;13.80;;;;;;;9.99;100.00;100183.55;105782;1295;22778;-69
2023/03/16 10:20:40;;;;;;;44.70;22.20;;;;;;;10.06;100.00;100178.65;105419;1295;25427;-69
2023/03/16 10:23:17;;;;;;;32.40;17.40;;;;;;;10.05;100.00;100182.00;105470;1296;22641;-72
2023/03/16 10:25:48;;;;;;;41.90;21.00;;;;;;;10.04;100.00;100178.10;105563;1297;25556;-71
2023/03/16 10:28:20;;;;;;;43.40;21.40;;;;;;;10.04;100.00;100183.38;105569;1297;22567;-71
2023/03/16 10:30:52;;;;;;;41.90;23.00;;;;;;;9.99;100.00;100182.95;105415;1293;25432;-70
2023/03/16 10:33:25;;;;;;;44.70;26.50;;;;;;;9.84;100.00;100185.84;105791;1292;25446;-68
2023/03/16 10:36:14;;;;;;;46.70;26.10;;;;;;;9.62;100.00;100185.30;105583;1291;22549;-71
2023/03/16 10:38:45;;;;;;;50.60;26.70;;;;;;;9.43;100.00;100182.40;105415;1297;22547;-71
2023/03/16 10:41:17;;;;;;;46.60;25.80;;;;;;;9.28;100.00;100185.59;105217;1295;22553;-71
2023/03/16 10:43:52;;;;;;;50.40;27.90;;;;;;;9.15;100.00;100188.02;105436;1297;25330;-70
2023/03/16 10:46:21;;;;;;;87.80;28.00;;;;;;;9.06;100.00;100191.23;105547;1292;22648;-70
2023/03/16 10:48:52;;;;;;;47.90;25.70;;;;;;;9.02;100.00;100196.19;105375;1297;22805;-68
2023/03/16 10:51:24;;;;;;;40.40;23.90;;;;;;;8.93;100.00;100191.01;105541;1297;22542;-68
2023/03/16 10:53:53;;;;;;;52.00;27.30;;;;;;;8.82;100.00;100188.19;105554;1297;24093;-68
2023/03/16 10:56:26;;;;;;;45.30;23.70;;;;;;;8.76;100.00;100192.02;105475;1297;26560;-70
2023/03/16 10:58:59;;;;;;;47.90;23.70;;;;;;;8.75;100.00;100193.35;105421;1297;25279;-70
2023/03/16 11:01:32;;;;;;;42.00;22.20;;;;;;;8.74;100.00;100190.73;105457;1297;25345;-70
2023/03/16 11:04:01;;;;;;;40.30;22.70;;;;;;;8.73;100.00;100191.21;105577;1293;25370;-70
2023/03/16 11:06:31;;;;;;;37.60;20.00;;;;;;;8.70;100.00;100190.75;105517;1292;22569;-71
2023/03/16 11:09:07;;;;;;;36.80;21.50;;;;;;;8.71;100.00;100195.31;105495;1292;22549;-70
2023/03/16 11:11:36;;;;;;;38.10;20.40;;;;;;;8.73;100.00;100194.24;105346;1297;25315;-71
2023/03/16 11:14:11;;;;;;;39.30;20.50;;;;;;;8.73;100.00;100201.63;105479;1292;22552;-73
2023/03/16 11:16:43;;;;;;;33.30;18.40;;;;;;;8.73;100.00;100194.98;105742;1290;22545;-70
2023/03/16 11:19:50;;;;;;;32.30;18.50;;;;;;;8.74;100.00;100191.77;105875;1290;25316;-72
2023/03/16 11:22:50;;;;;;;36.00;20.60;;;;;;;8.83;100.00;100186.09;105899;1290;26553;-69
2023/03/16 11:25:42;;;;;;;38.80;20.30;;;;;;;8.86;100.00;100195.95;105680;1288;26675;-72
2023/03/16 11:28:31;;;;;;;36.00;19.80;;;;;;;9.00;100.00;100190.48;105599;1293;22559;-70
2023/03/16 11:31:19;;;;;;;37.60;20.10;;;;;;;9.25;100.00;100185.55;105669;1297;23874;-70
2023/03/16 11:33:48;;;;;;;50.00;25.30;;;;;;;9.55;100.00;100183.88;105733;1278;23352;-70